createdAt,value
2022-09-02T00:00:20.924Z,28.50
2022-09-02T00:00:43.856Z,28.56
2022-09-02T00:01:13.522Z,28.06
2022-09-02T00:01:39.163Z,27.61
2022-09-02T00:02:01.734Z,27.52
2022-09-02T00:02:24.535Z,27.65
2022-09-02T00:02:49.107Z,28.14
2022-09-02T00:03:11.794Z,27.58
2022-09-02T00:03:36.453Z,28.38
2022-09-02T00:04:00.369Z,27.60
2022-09-02T00:04:25.451Z,28.05
2022-09-02T00:04:48.083Z,28.12
2022-09-02T00:05:09.872Z,28.29
2022-09-02T00:05:31.550Z,28.40
2022-09-02T00:05:53.285Z,28.62
2022-09-02T00:06:15.764Z,28.43
2022-09-02T00:06:38.742Z,28.03
2022-09-02T00:07:00.576Z,27.83
2022-09-02T00:07:22.268Z,28.09
2022-09-02T00:07:43.932Z,28.08
2022-09-02T00:08:07.531Z,28.07
2022-09-02T00:08:31.876Z,28.45
2022-09-02T00:08:54.075Z,28.55
2022-09-02T00:09:19.100Z,28.41
2022-09-02T00:09:40.821Z,28.68
2022-09-02T00:10:02.561Z,28.54
2022-09-02T00:10:24.764Z,28.32
2022-09-02T00:10:46.480Z,28.25
2022-09-02T00:11:10.013Z,28.36
2022-09-02T00:11:33.729Z,28.19
2022-09-02T00:12:52.450Z,28.05
2022-09-02T00:13:16.325Z,28.58
2022-09-02T00:13:38.120Z,28.38
2022-09-02T00:14:02.940Z,28.21
2022-09-02T00:14:28.643Z,28.29
2022-09-02T00:14:50.353Z,28.41
2022-09-02T00:15:12.335Z,28.12
2022-09-02T00:15:34.118Z,27.71
2022-09-02T00:15:56.596Z,27.31
2022-09-02T00:16:18.873Z,27.52
2022-09-02T00:16:42.557Z,28.22
2022-09-02T00:17:05.488Z,28.58
2022-09-02T00:17:28.020Z,28.30
2022-09-02T00:17:49.648Z,28.24
2022-09-02T00:18:15.174Z,28.80
2022-09-02T00:18:39.193Z,28.36
2022-09-02T00:19:02.607Z,28.43
2022-09-02T00:19:25.780Z,28.16
2022-09-02T00:19:50.980Z,27.74
2022-09-02T00:20:14.828Z,27.91
2022-09-02T00:20:36.465Z,28.41
2022-09-02T00:20:58.469Z,28.21
2022-09-02T00:21:20.989Z,28.42
2022-09-02T00:21:43.716Z,28.24
2022-09-02T00:22:05.423Z,28.20
2022-09-02T00:22:27.134Z,28.57
2022-09-02T00:22:48.985Z,28.35
2022-09-02T00:23:11.908Z,28.34
2022-09-02T00:23:35.592Z,28.55
2022-09-02T00:23:57.257Z,28.67
2022-09-02T00:24:19.608Z,28.53
2022-09-02T00:24:42.305Z,28.87
2022-09-02T00:25:04.526Z,29.07
2022-09-02T00:25:26.298Z,29.00
2022-09-02T00:25:48.149Z,29.26
2022-09-02T00:26:10.471Z,29.17
2022-09-02T00:26:33.275Z,28.98
2022-09-02T00:26:56.616Z,28.60
2022-09-02T00:27:18.702Z,28.61
2022-09-02T00:27:40.443Z,29.01
2022-09-02T00:28:05.789Z,29.30
2022-09-02T00:28:29.464Z,29.25
2022-09-02T00:28:56.197Z,28.98
2022-09-02T00:29:18.712Z,28.56
2022-09-02T00:29:40.435Z,28.31
2022-09-02T00:30:03.119Z,28.92
2022-09-02T00:30:24.805Z,28.71
2022-09-02T00:30:46.621Z,28.86
2022-09-02T00:31:08.524Z,28.10
2022-09-02T00:31:33.585Z,28.74
2022-09-02T00:32:31.383Z,29.04
2022-09-02T00:32:53.711Z,29.02
2022-09-02T00:33:16.819Z,28.62
2022-09-02T00:33:39.128Z,29.44
2022-09-02T00:34:00.810Z,29.71
2022-09-02T00:34:22.803Z,29.25
2022-09-02T00:34:45.757Z,29.18
2022-09-02T00:35:09.201Z,28.95
2022-09-02T00:35:31.945Z,28.94
2022-09-02T00:35:53.649Z,28.91
2022-09-02T00:36:15.359Z,29.33
2022-09-02T00:36:38.371Z,29.17
2022-09-02T00:37:00.042Z,28.75
2022-09-02T00:37:21.701Z,29.13
2022-09-02T00:37:43.369Z,28.70
2022-09-02T00:38:06.739Z,29.00
2022-09-02T00:38:31.188Z,28.90
2022-09-02T00:38:53.267Z,28.88
2022-09-02T00:39:15.383Z,28.76
2022-09-02T00:39:37.072Z,29.02
2022-09-02T00:39:59.910Z,28.76
2022-09-02T00:40:23.294Z,28.96
2022-09-02T00:40:47.925Z,29.49
2022-09-02T00:41:10.866Z,28.93
2022-09-02T00:41:34.729Z,28.77
2022-09-02T00:41:57.472Z,28.79
2022-09-02T00:42:19.284Z,29.12
2022-09-02T00:42:41.161Z,29.07
2022-09-02T00:43:08.233Z,28.72
2022-09-02T00:43:42.533Z,28.34
2022-09-02T00:44:07.383Z,28.04
2022-09-02T00:44:29.289Z,28.75
2022-09-02T00:44:51.076Z,28.14
2022-09-02T00:45:12.964Z,28.10
2022-09-02T00:45:38.099Z,28.05
2022-09-02T00:45:59.900Z,28.77
2022-09-02T00:46:24.956Z,28.73
2022-09-02T00:46:48.716Z,28.31
2022-09-02T00:47:11.136Z,28.32
2022-09-02T00:47:33.118Z,28.65
2022-09-02T00:47:55.215Z,28.28
2022-09-02T00:48:17.994Z,28.63
2022-09-02T00:48:43.492Z,28.31
2022-09-02T00:49:09.093Z,28.81
2022-09-02T00:49:34.306Z,28.77
2022-09-02T00:49:56.335Z,28.44
2022-09-02T00:50:21.177Z,28.65
2022-09-02T00:50:43.094Z,28.51
2022-09-02T00:51:06.896Z,28.98
2022-09-02T00:51:33.096Z,29.18
2022-09-02T00:52:01.745Z,28.61
2022-09-02T00:52:29.896Z,29.01
2022-09-02T00:52:56.524Z,28.71
2022-09-02T00:53:18.381Z,28.39
2022-09-02T00:53:43.694Z,28.82
2022-09-02T00:54:06.238Z,29.09
2022-09-02T00:54:31.221Z,29.42
2022-09-02T00:54:56.234Z,29.44
2022-09-02T00:55:20.769Z,29.85
2022-09-02T00:55:46.585Z,28.87
2022-09-02T00:56:13.909Z,28.86
2022-09-02T00:56:38.248Z,28.67
2022-09-02T00:57:04.810Z,29.08
2022-09-02T00:57:32.295Z,28.46
2022-09-02T00:57:59.597Z,28.66
2022-09-02T00:58:25.843Z,28.95
2022-09-02T00:58:50.592Z,29.34
2022-09-02T00:59:17.970Z,29.07
2022-09-02T00:59:46.333Z,29.36
2022-09-02T01:00:16.567Z,29.70
2022-09-02T01:00:42.957Z,29.38
2022-09-02T01:01:05.396Z,28.88
2022-09-02T01:01:28.045Z,29.45
2022-09-02T01:01:51.751Z,29.33
2022-09-02T01:02:13.871Z,29.28
2022-09-02T01:02:37.349Z,29.41
2022-09-02T01:03:01.916Z,29.78
2022-09-02T01:03:28.029Z,29.26
2022-09-02T01:03:50.397Z,29.49
2022-09-02T01:04:12.283Z,29.67
2022-09-02T01:04:35.315Z,29.27
2022-09-02T01:04:58.769Z,29.78
2022-09-02T01:05:23.372Z,29.69
2022-09-02T01:05:47.099Z,29.52
2022-09-02T01:06:11.816Z,29.48
2022-09-02T01:06:34.816Z,29.47
2022-09-02T01:06:56.693Z,29.52
2022-09-02T01:07:18.505Z,29.91
2022-09-02T01:07:40.525Z,29.28
2022-09-02T01:08:03.130Z,29.23
2022-09-02T01:08:30.040Z,29.11
2022-09-02T01:08:58.303Z,28.87
2022-09-02T01:09:20.262Z,29.12
2022-09-02T01:09:42.128Z,29.38
2022-09-02T01:10:07.063Z,29.39
2022-09-02T01:10:34.404Z,30.12
2022-09-02T01:10:56.963Z,29.44
2022-09-02T01:11:21.279Z,29.65
2022-09-02T01:11:47.930Z,29.30
2022-09-02T01:12:12.660Z,29.15
2022-09-02T01:12:35.680Z,29.38
2022-09-02T01:12:59.444Z,30.00
2022-09-02T01:13:25.144Z,29.88
2022-09-02T01:13:47.524Z,29.67
2022-09-02T01:14:12.388Z,29.14
2022-09-02T01:14:35.392Z,30.01
2022-09-02T01:14:57.511Z,29.64
2022-09-02T01:15:19.136Z,29.60
2022-09-02T01:15:44.041Z,29.46
2022-09-02T01:16:11.642Z,29.27
2022-09-02T01:16:42.043Z,29.62
2022-09-02T01:17:06.957Z,28.88
2022-09-02T01:17:28.897Z,28.73
2022-09-02T01:17:51.719Z,29.00
2022-09-02T01:18:28.865Z,29.42
2022-09-02T01:18:53.815Z,29.28
2022-09-02T01:19:21.752Z,29.15
2022-09-02T01:19:47.788Z,28.40
2022-09-02T01:20:13.212Z,28.73
2022-09-02T01:20:35.137Z,28.61
2022-09-02T01:20:59.612Z,28.61
2022-09-02T01:21:24.136Z,28.80
2022-09-02T01:21:48.552Z,28.98
2022-09-02T01:22:16.196Z,29.42
2022-09-02T01:22:41.594Z,29.70
2022-09-02T01:23:03.315Z,29.36
2022-09-02T01:23:25.533Z,29.35
2022-09-02T01:23:48.737Z,29.46
2022-09-02T01:24:11.471Z,29.04
2022-09-02T01:24:34.652Z,29.48
2022-09-02T01:24:59.918Z,29.07
2022-09-02T01:25:25.477Z,29.19
2022-09-02T01:25:48.298Z,30.24
2022-09-02T01:26:10.721Z,30.41
2022-09-02T01:26:32.572Z,29.91
2022-09-02T01:26:57.096Z,29.99
2022-09-02T01:27:22.174Z,30.55
2022-09-02T01:27:44.256Z,29.88
2022-09-02T01:28:09.099Z,29.46
2022-09-02T01:28:33.393Z,29.20
2022-09-02T01:28:58.965Z,29.00
2022-09-02T01:29:20.903Z,28.67
2022-09-02T01:29:42.840Z,28.71
2022-09-02T01:30:11.758Z,29.01
2022-09-02T01:30:36.429Z,28.79
2022-09-02T01:30:58.070Z,28.59
2022-09-02T01:31:19.852Z,28.60
2022-09-02T01:31:41.620Z,28.76
2022-09-02T01:32:04.501Z,28.59
2022-09-02T01:32:28.677Z,28.86
2022-09-02T01:32:50.794Z,29.22
2022-09-02T01:33:12.499Z,30.14
2022-09-02T01:33:35.568Z,30.30
2022-09-02T01:33:57.987Z,30.08
2022-09-02T01:34:21.146Z,29.73
2022-09-02T01:34:42.805Z,29.68
2022-09-02T01:35:05.666Z,29.58
2022-09-02T01:35:28.405Z,29.19
2022-09-02T01:35:50.570Z,28.74
2022-09-02T01:36:12.311Z,29.16
2022-09-02T01:36:38.120Z,29.21
2022-09-02T01:37:02.379Z,29.28
2022-09-02T01:37:24.159Z,29.01
2022-09-02T01:37:54.713Z,29.51
2022-09-02T01:38:27.828Z,29.21
2022-09-02T01:38:50.552Z,28.81
2022-09-02T01:39:14.028Z,29.23
2022-09-02T01:39:35.952Z,29.79
2022-09-02T01:39:58.826Z,30.35
2022-09-02T01:40:20.600Z,29.80
2022-09-02T01:40:44.007Z,29.45
2022-09-02T01:41:06.579Z,29.10
2022-09-02T01:41:28.215Z,29.17
2022-09-02T01:41:50.955Z,28.54
2022-09-02T01:42:14.612Z,28.63
2022-09-02T01:42:39.697Z,28.92
2022-09-02T01:43:07.116Z,28.72
2022-09-02T01:43:29.775Z,29.10
2022-09-02T01:43:52.421Z,29.98
2022-09-02T01:44:16.075Z,29.95
2022-09-02T01:44:43.909Z,30.05
2022-09-02T01:45:08.832Z,30.22
2022-09-02T01:45:30.561Z,29.84
2022-09-02T01:45:56.209Z,30.10
2022-09-02T01:46:20.353Z,29.86
2022-09-02T01:46:42.165Z,29.81
2022-09-02T01:47:04.488Z,29.65
2022-09-02T01:47:27.522Z,29.52
2022-09-02T01:47:50.908Z,29.84
2022-09-02T01:48:14.003Z,30.23
2022-09-02T01:48:42.972Z,30.00
2022-09-02T01:49:06.470Z,30.04
2022-09-02T01:49:28.157Z,29.87
2022-09-02T01:49:51.139Z,29.65
2022-09-02T01:50:13.136Z,30.21
2022-09-02T01:50:37.236Z,30.48
2022-09-02T01:51:02.216Z,30.46
2022-09-02T01:51:24.274Z,29.85
2022-09-02T01:51:46.769Z,30.02
2022-09-02T01:52:10.033Z,29.89
2022-09-02T01:52:33.323Z,30.14
2022-09-02T01:52:56.858Z,30.41
2022-09-02T01:53:18.699Z,29.69
2022-09-02T01:53:40.465Z,29.88
2022-09-02T01:54:02.573Z,29.72
2022-09-02T01:54:25.216Z,29.83
2022-09-02T01:54:47.428Z,29.69
2022-09-02T01:55:09.632Z,29.30
2022-09-02T01:55:31.772Z,29.67
2022-09-02T01:55:54.748Z,30.01
2022-09-02T01:56:17.073Z,29.64
2022-09-02T01:56:39.152Z,30.54
2022-09-02T01:57:01.263Z,30.35
2022-09-02T01:57:24.621Z,30.13
2022-09-02T01:57:47.521Z,30.40
2022-09-02T01:58:10.090Z,30.34
2022-09-02T01:58:31.847Z,30.14
2022-09-02T01:58:55.056Z,29.86
2022-09-02T01:59:17.977Z,29.49
2022-09-02T01:59:39.700Z,30.19
2022-09-02T02:00:04.152Z,30.21
2022-09-02T02:00:34.750Z,30.11
2022-09-02T02:00:56.812Z,30.86
2022-09-02T02:01:19.511Z,30.43
2022-09-02T02:01:41.849Z,30.35
2022-09-02T02:02:05.127Z,30.37
2022-09-02T02:02:28.490Z,30.03
2022-09-02T02:02:51.731Z,30.43
2022-09-02T02:03:13.817Z,30.42
2022-09-02T02:03:35.827Z,30.10
2022-09-02T02:03:59.761Z,30.56
2022-09-02T02:04:24.628Z,30.52
2022-09-02T02:04:49.428Z,30.22
2022-09-02T02:05:11.814Z,30.74
2022-09-02T02:05:34.793Z,30.31
2022-09-02T02:05:58.610Z,30.43
2022-09-02T02:06:20.649Z,30.39
2022-09-02T02:06:44.405Z,29.84
2022-09-02T02:07:07.133Z,30.08
2022-09-02T02:07:31.913Z,30.30
2022-09-02T02:07:54.298Z,29.68
2022-09-02T02:08:16.511Z,29.90
2022-09-02T02:08:38.650Z,29.75
2022-09-02T02:09:01.336Z,29.93
2022-09-02T02:09:23.588Z,29.86
2022-09-02T02:09:46.889Z,30.07
2022-09-02T02:10:11.751Z,30.30
2022-09-02T02:10:35.222Z,30.10
2022-09-02T02:10:57.388Z,29.91
2022-09-02T02:11:20.643Z,29.80
2022-09-02T02:11:45.799Z,29.62
2022-09-02T02:12:12.815Z,30.21
2022-09-02T02:12:34.537Z,30.34
2022-09-02T02:13:00.096Z,30.13
2022-09-02T02:13:24.219Z,29.64
2022-09-02T02:13:48.468Z,29.94
2022-09-02T02:14:10.857Z,29.54
2022-09-02T02:14:39.548Z,29.60
2022-09-02T02:15:02.190Z,29.39
2022-09-02T02:15:46.439Z,29.46
2022-09-02T02:16:08.203Z,30.37
2022-09-02T02:16:30.214Z,29.75
2022-09-02T02:16:52.921Z,29.74
2022-09-02T02:17:14.667Z,29.69
2022-09-02T02:17:36.711Z,29.66
2022-09-02T02:18:00.445Z,29.16
2022-09-02T02:18:23.257Z,28.83
2022-09-02T02:18:47.974Z,29.66
2022-09-02T02:19:09.703Z,29.50
2022-09-02T02:19:31.852Z,29.95
2022-09-02T02:19:54.148Z,30.57
2022-09-02T02:20:18.996Z,30.12
2022-09-02T02:20:40.715Z,30.18
2022-09-02T02:21:06.536Z,30.03
2022-09-02T02:21:28.378Z,29.91
2022-09-02T02:21:51.331Z,29.74
2022-09-02T02:22:13.968Z,29.59
2022-09-02T02:22:37.728Z,29.31
2022-09-02T02:22:59.460Z,29.41
2022-09-02T02:23:22.444Z,29.54
2022-09-02T02:23:44.215Z,28.98
2022-09-02T02:24:07.884Z,28.98
2022-09-02T02:24:29.792Z,29.37
2022-09-02T02:24:51.527Z,29.63
2022-09-02T02:25:16.034Z,29.53
2022-09-02T02:25:37.976Z,29.55
2022-09-02T02:26:00.209Z,29.52
2022-09-02T02:26:21.903Z,29.05
2022-09-02T02:26:43.577Z,29.26
2022-09-02T02:27:06.622Z,29.10
2022-09-02T02:27:28.375Z,28.94
2022-09-02T02:27:51.278Z,28.83
2022-09-02T02:28:16.410Z,28.94
2022-09-02T02:28:38.348Z,29.10
2022-09-02T02:29:00.660Z,29.33
2022-09-02T02:29:23.668Z,28.83
2022-09-02T02:29:46.007Z,29.04
2022-09-02T02:30:10.064Z,29.13
2022-09-02T02:30:32.385Z,29.28
2022-09-02T02:30:55.817Z,29.14
2022-09-02T02:31:17.583Z,29.15
2022-09-02T02:31:42.263Z,29.03
2022-09-02T02:32:07.384Z,28.93
2022-09-02T02:32:29.182Z,29.27
2022-09-02T02:32:52.051Z,28.93
2022-09-02T02:33:15.620Z,28.94
2022-09-02T02:33:38.316Z,29.40
2022-09-02T02:34:00.421Z,29.25
2022-09-02T02:34:23.404Z,29.52
2022-09-02T02:34:45.519Z,29.39
2022-09-02T02:35:08.252Z,29.61
2022-09-02T02:35:30.171Z,29.68
2022-09-02T02:35:53.490Z,29.49
2022-09-02T02:36:18.207Z,29.55
2022-09-02T02:36:40.417Z,29.47
2022-09-02T02:37:02.129Z,29.83
2022-09-02T02:37:25.633Z,30.90
2022-09-02T02:37:51.326Z,30.30
2022-09-02T02:38:14.401Z,29.87
2022-09-02T02:38:39.098Z,29.62
2022-09-02T02:39:01.532Z,29.46
2022-09-02T02:39:24.503Z,29.46
2022-09-02T02:39:46.451Z,29.32
2022-09-02T02:40:10.229Z,29.37
2022-09-02T02:40:32.116Z,29.38
2022-09-02T02:40:57.446Z,29.10
2022-09-02T02:41:20.669Z,28.91
2022-09-02T02:41:44.601Z,29.17
2022-09-02T02:42:08.100Z,29.30
2022-09-02T02:42:30.849Z,29.41
2022-09-02T02:42:53.971Z,30.09
2022-09-02T02:43:17.536Z,30.41
2022-09-02T02:43:40.608Z,30.04
2022-09-02T02:44:02.604Z,30.15
2022-09-02T02:44:24.397Z,30.58
2022-09-02T02:44:46.212Z,30.06
2022-09-02T02:45:14.979Z,30.55
2022-09-02T02:45:37.433Z,30.24
2022-09-02T02:45:59.286Z,29.69
2022-09-02T02:46:21.461Z,29.62
2022-09-02T02:46:43.818Z,29.63
2022-09-02T02:47:08.337Z,29.71
2022-09-02T02:47:30.065Z,29.89
2022-09-02T02:47:52.755Z,29.45
2022-09-02T02:48:16.480Z,29.52
2022-09-02T02:48:39.071Z,29.13
2022-09-02T02:49:01.508Z,29.06
2022-09-02T02:49:23.336Z,29.51
2022-09-02T02:49:45.958Z,29.25
2022-09-02T02:50:10.516Z,29.21
2022-09-02T02:50:32.188Z,29.25
2022-09-02T02:50:53.977Z,29.45
2022-09-02T02:51:16.904Z,29.40
2022-09-02T02:51:40.024Z,29.44
2022-09-02T02:52:01.769Z,29.49
2022-09-02T02:52:23.638Z,29.93
2022-09-02T02:52:48.757Z,29.60
2022-09-02T02:53:13.437Z,29.86
2022-09-02T02:53:36.889Z,30.47
2022-09-02T02:53:59.860Z,30.33
2022-09-02T02:54:23.756Z,29.80
2022-09-02T02:54:49.303Z,29.76
2022-09-02T02:55:13.776Z,29.46
2022-09-02T02:55:36.631Z,29.39
2022-09-02T02:55:58.374Z,29.14
2022-09-02T02:56:20.043Z,29.52
2022-09-02T02:56:42.450Z,29.42
2022-09-02T02:57:06.649Z,29.16
2022-09-02T02:57:28.507Z,29.40
2022-09-02T02:57:51.845Z,29.53
2022-09-02T02:58:16.547Z,29.09
2022-09-02T02:58:39.464Z,29.43
2022-09-02T02:59:03.969Z,29.51
2022-09-02T02:59:27.283Z,29.82
2022-09-02T02:59:48.953Z,29.63
2022-09-02T03:00:14.079Z,29.59
2022-09-02T03:00:37.386Z,29.16
2022-09-02T03:01:00.876Z,29.42
2022-09-02T03:01:23.997Z,29.16
2022-09-02T03:01:46.892Z,29.34
2022-09-02T03:02:09.268Z,28.92
2022-09-02T03:02:33.275Z,29.38
2022-09-02T03:02:56.229Z,29.15
2022-09-02T03:03:19.621Z,29.53
2022-09-02T03:03:44.800Z,29.50
2022-09-02T03:04:06.910Z,29.26
2022-09-02T03:04:28.885Z,29.34
2022-09-02T03:04:54.150Z,29.47
2022-09-02T03:05:17.081Z,30.05
2022-09-02T03:05:42.063Z,29.81
2022-09-02T03:06:03.989Z,30.19
2022-09-02T03:06:26.810Z,30.39
2022-09-02T03:06:50.964Z,30.00
2022-09-02T03:07:13.637Z,30.02
2022-09-02T03:07:35.423Z,29.75
2022-09-02T03:07:59.762Z,29.53
2022-09-02T03:08:25.662Z,29.70
2022-09-02T03:08:48.870Z,29.76
2022-09-02T03:09:13.592Z,29.30
2022-09-02T03:09:35.978Z,29.24
2022-09-02T03:09:57.787Z,29.61
2022-09-02T03:10:22.217Z,29.20
2022-09-02T03:10:44.125Z,29.74
2022-09-02T03:11:07.073Z,29.40
2022-09-02T03:11:32.691Z,29.67
2022-09-02T03:11:55.444Z,29.56
2022-09-02T03:12:17.956Z,29.47
2022-09-02T03:12:40.581Z,29.51
2022-09-02T03:13:03.214Z,29.84
2022-09-02T03:13:26.717Z,29.58
2022-09-02T03:13:52.410Z,29.71
2022-09-02T03:14:14.386Z,29.60
2022-09-02T03:14:37.225Z,29.90
2022-09-02T03:14:59.053Z,29.67
2022-09-02T03:15:22.588Z,29.46
2022-09-02T03:15:48.116Z,29.70
2022-09-02T03:16:10.338Z,29.52
2022-09-02T03:16:34.624Z,29.20
2022-09-02T03:16:57.645Z,29.60
2022-09-02T03:17:19.731Z,29.97
2022-09-02T03:17:42.018Z,30.58
2022-09-02T03:18:03.972Z,31.03
2022-09-02T03:18:25.886Z,31.18
2022-09-02T03:18:48.961Z,31.11
2022-09-02T03:19:14.014Z,31.03
2022-09-02T03:19:35.951Z,30.54
2022-09-02T03:19:59.341Z,30.35
2022-09-02T03:20:26.304Z,29.69
2022-09-02T03:20:52.240Z,29.74
2022-09-02T03:21:15.997Z,30.03
2022-09-02T03:21:39.461Z,30.29
2022-09-02T03:22:04.654Z,29.60
2022-09-02T03:22:26.977Z,29.95
2022-09-02T03:22:50.495Z,29.97
2022-09-02T03:23:13.103Z,29.97
2022-09-02T03:23:39.725Z,29.54
2022-09-02T03:24:03.834Z,30.26
2022-09-02T03:24:25.522Z,30.89
2022-09-02T03:24:47.531Z,30.79
2022-09-02T03:25:11.414Z,30.96
2022-09-02T03:25:36.376Z,30.45
2022-09-02T03:26:11.086Z,30.33
2022-09-02T03:26:33.452Z,29.95
2022-09-02T03:26:56.156Z,29.57
2022-09-02T03:27:17.816Z,29.68
2022-09-02T03:27:41.039Z,29.44
2022-09-02T03:28:03.882Z,29.97
2022-09-02T03:28:26.941Z,29.90
2022-09-02T03:28:49.633Z,29.92
2022-09-02T03:29:12.057Z,30.36
2022-09-02T03:29:33.756Z,30.15
2022-09-02T03:29:56.728Z,29.80
2022-09-02T03:30:22.226Z,29.95
2022-09-02T03:30:45.963Z,29.76
2022-09-02T03:31:14.669Z,29.86
2022-09-02T03:31:37.522Z,29.59
2022-09-02T03:31:59.281Z,29.89
2022-09-02T03:32:23.292Z,30.08
2022-09-02T03:32:48.953Z,30.04
2022-09-02T03:33:10.780Z,29.95
2022-09-02T03:33:33.752Z,29.88
2022-09-02T03:33:55.617Z,30.18
2022-09-02T03:34:18.029Z,30.42
2022-09-02T03:34:41.684Z,30.21
2022-09-02T03:35:04.944Z,29.69
2022-09-02T03:35:27.850Z,29.97
2022-09-02T03:35:49.541Z,29.99
2022-09-02T03:36:21.207Z,30.66
2022-09-02T03:36:44.714Z,30.86
2022-09-02T03:37:09.438Z,30.37
2022-09-02T03:37:32.009Z,30.31
2022-09-02T03:37:55.426Z,29.77
2022-09-02T03:38:19.813Z,29.61
2022-09-02T03:38:42.846Z,29.83
2022-09-02T03:39:10.002Z,29.51
2022-09-02T03:39:33.007Z,30.86
2022-09-02T03:39:54.635Z,30.71
2022-09-02T03:40:18.884Z,30.07
2022-09-02T03:40:42.493Z,29.97
2022-09-02T03:41:04.247Z,29.92
2022-09-02T03:41:27.015Z,29.86
2022-09-02T03:41:50.327Z,29.90
2022-09-02T03:42:19.295Z,29.65
2022-09-02T03:42:43.301Z,29.94
2022-09-02T03:43:09.597Z,29.97
2022-09-02T03:43:31.873Z,30.17
2022-09-02T03:43:53.543Z,30.07
2022-09-02T03:44:15.331Z,30.24
2022-09-02T03:44:41.088Z,29.61
2022-09-02T03:45:03.662Z,30.00
2022-09-02T03:45:25.419Z,29.52
2022-09-02T03:45:47.684Z,29.46
2022-09-02T03:46:10.208Z,29.90
2022-09-02T03:46:33.179Z,30.03
2022-09-02T03:46:55.192Z,29.65
2022-09-02T03:47:20.765Z,29.84
2022-09-02T03:47:51.248Z,29.81
2022-09-02T03:48:16.248Z,29.52
2022-09-02T03:48:40.032Z,29.19
2022-09-02T03:49:03.407Z,29.23
2022-09-02T03:49:27.756Z,29.38
2022-09-02T03:49:50.698Z,29.41
2022-09-02T03:50:12.707Z,29.27
2022-09-02T03:50:39.315Z,29.33
2022-09-02T03:51:03.211Z,29.38
2022-09-02T03:51:26.407Z,29.63
2022-09-02T03:51:48.357Z,29.68
2022-09-02T03:52:11.004Z,29.27
2022-09-02T03:52:34.576Z,29.27
2022-09-02T03:52:56.713Z,29.66
2022-09-02T03:53:22.984Z,29.42
2022-09-02T03:53:53.279Z,29.54
2022-09-02T03:54:15.611Z,29.62
2022-09-02T03:54:37.340Z,29.69
2022-09-02T03:54:59.031Z,29.22
2022-09-02T03:55:22.756Z,29.25
2022-09-02T03:55:45.463Z,29.63
2022-09-02T03:56:11.970Z,29.62
2022-09-02T03:56:35.081Z,30.07
2022-09-02T03:56:57.483Z,29.81
2022-09-02T03:57:23.007Z,29.83
2022-09-02T03:57:44.844Z,29.76
2022-09-02T03:58:08.516Z,29.85
2022-09-02T03:58:32.847Z,29.99
2022-09-02T03:58:56.361Z,29.71
2022-09-02T03:59:20.832Z,29.45
2022-09-02T03:59:42.792Z,29.36
2022-09-02T04:00:08.044Z,29.56
2022-09-02T04:00:36.381Z,29.53
2022-09-02T04:00:59.613Z,29.96
2022-09-02T04:01:25.184Z,29.91
2022-09-02T04:01:50.258Z,29.99
2022-09-02T04:02:12.221Z,30.20
2022-09-02T04:02:34.493Z,31.11
2022-09-02T04:02:57.495Z,30.55
2022-09-02T04:03:20.596Z,30.42
2022-09-02T04:03:43.711Z,30.11
2022-09-02T04:04:06.333Z,29.91
2022-09-02T04:04:31.184Z,29.82
2022-09-02T04:04:52.921Z,29.80
2022-09-02T04:05:15.930Z,29.75
2022-09-02T04:05:37.943Z,29.65
2022-09-02T04:06:00.251Z,30.02
2022-09-02T04:06:26.239Z,29.79
2022-09-02T04:06:55.188Z,30.47
2022-09-02T04:07:16.967Z,30.66
2022-09-02T04:07:39.669Z,30.14
2022-09-02T04:08:02.824Z,30.23
2022-09-02T04:08:25.955Z,30.55
2022-09-02T04:08:51.228Z,30.41
2022-09-02T04:09:12.989Z,30.96
2022-09-02T04:09:36.513Z,30.81
2022-09-02T04:09:58.740Z,31.50
2022-09-02T04:10:21.955Z,31.32
2022-09-02T04:10:44.571Z,31.21
2022-09-02T04:11:08.359Z,31.39
2022-09-02T04:11:31.668Z,31.58
2022-09-02T04:11:54.257Z,31.14
2022-09-02T04:12:15.916Z,30.52
2022-09-02T04:12:37.836Z,30.88
2022-09-02T04:13:01.011Z,30.86
2022-09-02T04:13:22.849Z,30.76
2022-09-02T04:13:45.551Z,31.37
2022-09-02T04:14:11.175Z,31.07
2022-09-02T04:14:33.132Z,30.53
2022-09-02T04:14:55.084Z,30.84
2022-09-02T04:15:20.270Z,30.78
2022-09-02T04:15:47.767Z,30.39
2022-09-02T04:16:13.835Z,30.06
2022-09-02T04:16:36.095Z,29.96
2022-09-02T04:17:01.317Z,30.30
2022-09-02T04:17:23.226Z,29.77
2022-09-02T04:17:44.971Z,29.68
2022-09-02T04:18:09.655Z,29.99
2022-09-02T04:18:31.318Z,29.87
2022-09-02T04:18:54.374Z,29.40
2022-09-02T04:19:16.771Z,29.56
2022-09-02T04:19:40.254Z,29.55
2022-09-02T04:20:02.356Z,30.27
2022-09-02T04:20:26.011Z,29.82
2022-09-02T04:20:48.042Z,30.68
2022-09-02T04:21:10.795Z,30.43
2022-09-02T04:21:36.382Z,30.36
2022-09-02T04:21:58.321Z,31.08
2022-09-02T04:22:20.224Z,30.68
2022-09-02T04:22:41.946Z,30.62
2022-09-02T04:23:04.828Z,30.57
2022-09-02T04:23:28.222Z,30.08
2022-09-02T04:23:52.526Z,30.21
2022-09-02T04:24:16.362Z,29.86
2022-09-02T04:24:41.547Z,30.48
2022-09-02T04:25:04.532Z,30.43
2022-09-02T04:25:28.032Z,30.85
2022-09-02T04:25:51.277Z,30.21
2022-09-02T04:26:14.938Z,30.07
2022-09-02T04:26:37.563Z,30.95
2022-09-02T04:27:06.505Z,30.65
2022-09-02T04:27:30.707Z,30.43
2022-09-02T04:27:53.444Z,30.53
2022-09-02T04:28:17.217Z,31.32
2022-09-02T04:28:39.318Z,31.35
2022-09-02T04:29:01.141Z,30.96
2022-09-02T04:29:26.233Z,31.06
2022-09-02T04:29:48.557Z,30.85
2022-09-02T04:30:13.300Z,31.07
2022-09-02T04:30:39.032Z,30.02
2022-09-02T04:31:04.561Z,30.45
2022-09-02T04:31:28.669Z,31.05
2022-09-02T04:31:50.664Z,30.34
2022-09-02T04:32:13.674Z,30.75
2022-09-02T04:32:39.859Z,30.64
2022-09-02T04:33:03.172Z,30.60
2022-09-02T04:33:24.851Z,30.21
2022-09-02T04:33:48.368Z,30.01
2022-09-02T04:34:11.781Z,30.65
2022-09-02T04:34:34.757Z,30.05
2022-09-02T04:34:56.527Z,30.50
2022-09-02T04:35:18.690Z,30.55
2022-09-02T04:35:41.871Z,31.10
2022-09-02T04:36:05.720Z,30.73
2022-09-02T04:36:29.067Z,30.73
2022-09-02T04:36:55.428Z,30.30
2022-09-02T04:37:17.089Z,30.26
2022-09-02T04:37:39.525Z,31.01
2022-09-02T04:38:02.944Z,30.63
2022-09-02T04:38:25.461Z,30.90
2022-09-02T04:38:48.983Z,31.10
2022-09-02T04:39:13.759Z,30.86
2022-09-02T04:39:35.669Z,30.93
2022-09-02T04:39:58.312Z,31.02
2022-09-02T04:40:20.273Z,30.55
2022-09-02T04:40:46.678Z,30.92
2022-09-02T04:41:10.459Z,30.74
2022-09-02T04:41:32.314Z,30.71
2022-09-02T04:41:57.620Z,31.00
2022-09-02T04:42:21.713Z,31.04
2022-09-02T04:42:43.648Z,30.77
2022-09-02T04:43:06.114Z,30.22
2022-09-02T04:43:28.345Z,30.72
2022-09-02T04:43:51.986Z,30.31
2022-09-02T04:44:14.353Z,30.40
2022-09-02T04:44:39.586Z,30.70
2022-09-02T04:45:02.507Z,30.58
2022-09-02T04:45:29.786Z,30.63
2022-09-02T04:45:52.318Z,30.71
2022-09-02T04:46:16.268Z,30.73
2022-09-02T04:46:40.039Z,30.23
2022-09-02T04:47:06.916Z,30.28
2022-09-02T04:47:28.603Z,29.60
2022-09-02T04:47:51.036Z,29.58
2022-09-02T04:48:13.898Z,29.81
2022-09-02T04:48:37.113Z,30.81
2022-09-02T04:49:00.228Z,30.08
2022-09-02T04:49:22.108Z,30.18
2022-09-02T04:49:47.276Z,30.10
2022-09-02T04:50:09.242Z,30.40
2022-09-02T04:50:33.065Z,30.77
2022-09-02T04:50:55.220Z,30.40
2022-09-02T04:51:19.635Z,30.22
2022-09-02T04:51:43.074Z,30.75
2022-09-02T04:52:06.644Z,31.03
2022-09-02T04:52:28.484Z,30.53
2022-09-02T04:52:50.963Z,30.54
2022-09-02T04:53:12.783Z,30.03
2022-09-02T04:53:36.255Z,30.28
2022-09-02T04:53:59.782Z,30.80
2022-09-02T04:54:22.892Z,30.55
2022-09-02T04:54:45.829Z,31.28
2022-09-02T04:55:08.868Z,31.24
2022-09-02T04:55:32.011Z,31.62
2022-09-02T04:55:57.915Z,31.53
2022-09-02T04:56:23.296Z,30.75
2022-09-02T04:56:46.150Z,31.36
2022-09-02T04:57:08.569Z,31.36
2022-09-02T04:57:30.980Z,30.81
2022-09-02T04:57:53.195Z,30.64
2022-09-02T04:58:17.032Z,30.36
2022-09-02T04:58:43.951Z,29.88
2022-09-02T04:59:07.161Z,30.07
2022-09-02T04:59:29.725Z,31.09
2022-09-02T04:59:58.259Z,31.54
2022-09-02T05:00:20.789Z,30.39
2022-09-02T05:00:43.395Z,30.59
2022-09-02T05:01:09.778Z,30.30
2022-09-02T05:01:34.611Z,31.48
2022-09-02T05:02:01.362Z,30.51
2022-09-02T05:02:26.286Z,31.52
2022-09-02T05:02:48.069Z,31.10
2022-09-02T05:03:11.749Z,30.64
2022-09-02T05:03:35.663Z,30.64
2022-09-02T05:03:58.321Z,30.18
2022-09-02T05:04:25.600Z,30.59
2022-09-02T05:04:48.169Z,30.82